createdAt,value
2022-08-25T00:02:11.213Z,100340.03
2022-08-25T00:07:12.844Z,100328.13
2022-08-25T00:12:20.301Z,100332.53
2022-08-25T00:17:21.898Z,100333.25
2022-08-25T00:22:23.578Z,100324.44
2022-08-25T00:27:25.989Z,100333.09
2022-08-25T00:32:27.663Z,100333.78
2022-08-25T00:37:29.335Z,100334.88
2022-08-25T00:42:31.679Z,100329.75
2022-08-25T00:47:33.399Z,100326.94
2022-08-25T00:52:43.067Z,100324.00
2022-08-25T00:58:14.084Z,100314.19
2022-08-25T01:03:19.108Z,100311.81
2022-08-25T01:08:25.576Z,100313.34
2022-08-25T01:13:47.119Z,100311.22
2022-08-25T01:18:51.883Z,100313.97
2022-08-25T01:23:58.140Z,100310.84
2022-08-25T01:29:20.305Z,100312.31
2022-08-25T01:34:22.281Z,100313.97
2022-08-25T01:39:25.183Z,100314.88
2022-08-25T01:44:26.807Z,100312.31
2022-08-25T01:49:28.753Z,100307.50
2022-08-25T01:54:30.350Z,100311.72
2022-08-25T01:59:32.112Z,100310.25
2022-08-25T02:04:34.387Z,100307.94
2022-08-25T02:09:37.651Z,100305.19
2022-08-25T02:14:39.293Z,100307.94
2022-08-25T02:19:43.228Z,100311.97
2022-08-25T02:24:44.948Z,100299.44
2022-08-25T02:29:47.318Z,100301.69
2022-08-25T02:34:48.957Z,100296.53
2022-08-25T02:39:50.576Z,100293.09
2022-08-25T02:44:52.646Z,100301.44
2022-08-25T02:49:54.796Z,100301.97
2022-08-25T02:54:56.439Z,100297.22
2022-08-25T02:59:58.990Z,100302.00
2022-08-25T03:05:00.857Z,100296.78
2022-08-25T03:10:08.919Z,100291.22
2022-08-25T03:15:12.824Z,100289.94
2022-08-25T03:20:15.823Z,100287.03
2022-08-25T03:25:37.315Z,100276.91
2022-08-25T03:30:38.958Z,100277.41
2022-08-25T03:35:40.787Z,100279.75
2022-08-25T03:40:42.512Z,100284.63
2022-08-25T03:45:46.464Z,100273.56
2022-08-25T03:50:51.959Z,100277.91
2022-08-25T03:55:53.869Z,100273.56
2022-08-25T04:00:56.810Z,100274.09
2022-08-25T04:06:02.649Z,100275.53
2022-08-25T04:11:14.310Z,100265.84
2022-08-25T04:16:25.309Z,100275.00
2022-08-25T04:21:27.999Z,100272.84
2022-08-25T04:26:36.773Z,100278.38
2022-08-25T04:31:41.141Z,100278.97
2022-08-25T04:36:42.773Z,100275.38
2022-08-25T04:41:44.364Z,100274.63
2022-08-25T04:46:46.002Z,100265.50
2022-08-25T04:51:47.864Z,100276.50
2022-08-25T04:56:54.061Z,100275.63
2022-08-25T05:01:57.472Z,100280.06
2022-08-25T05:07:00.362Z,100280.69
2022-08-25T05:12:02.845Z,100286.00
2022-08-25T05:17:04.845Z,100288.47
2022-08-25T05:22:06.845Z,100293.53
2022-08-25T05:27:08.433Z,100288.78
2022-08-25T05:32:10.365Z,100289.34
2022-08-25T05:37:12.372Z,100292.06
2022-08-25T05:42:14.119Z,100284.06
2022-08-25T05:47:15.733Z,100293.03
2022-08-25T05:52:20.032Z,100284.91
2022-08-25T05:57:21.906Z,100281.53
2022-08-25T06:02:42.014Z,100279.44
2022-08-25T06:07:48.509Z,100271.81
2022-08-25T06:12:50.701Z,100269.44
2022-08-25T06:17:55.725Z,100279.47
2022-08-25T06:22:59.423Z,100283.41
2022-08-25T06:28:01.071Z,100287.88
2022-08-25T06:33:02.716Z,100276.91
2022-08-25T06:38:04.445Z,100281.97
2022-08-25T06:43:08.925Z,100267.56
2022-08-25T06:48:11.212Z,100273.44
2022-08-25T06:53:13.277Z,100272.25
2022-08-25T06:58:14.846Z,100270.25
2022-08-25T07:03:16.598Z,100271.72
2022-08-25T07:08:19.319Z,100265.28
2022-08-25T07:13:21.122Z,100274.75
2022-08-25T07:18:22.831Z,100269.59
2022-08-25T07:23:25.843Z,100264.81
2022-08-25T07:28:27.495Z,100263.09
2022-08-25T07:33:29.097Z,100264.72
2022-08-25T07:38:31.241Z,100266.06
2022-08-25T07:43:32.941Z,100266.94
2022-08-25T07:48:34.519Z,100269.69
2022-08-25T07:53:37.690Z,100264.47
2022-08-25T07:58:40.833Z,100260.28
2022-08-25T08:03:50.960Z,100258.59
2022-08-25T08:08:54.612Z,100260.91
2022-08-25T08:13:59.955Z,100265.88
2022-08-25T08:19:02.985Z,100266.38
2022-08-25T08:24:14.891Z,100256.56
2022-08-25T08:29:27.843Z,100249.63
2022-08-25T08:34:30.517Z,100247.34
2022-08-25T08:39:32.238Z,100237.84
2022-08-25T08:44:46.651Z,100236.63
2022-08-25T08:50:23.965Z,100237.66
2022-08-25T08:55:39.066Z,100230.56
2022-08-25T09:00:51.849Z,100230.72
2022-08-25T09:05:59.215Z,100223.41
2022-08-25T09:11:30.487Z,100219.97
2022-08-25T09:16:57.531Z,100212.63
2022-08-25T09:22:35.587Z,100212.41
2022-08-25T09:28:08.454Z,100200.59
2022-08-25T09:33:12.171Z,100194.59
2022-08-25T09:38:13.871Z,100191.63
2022-08-25T09:43:37.109Z,100185.66
2022-08-25T09:48:56.435Z,100179.81
2022-08-25T09:54:10.749Z,100177.41
2022-08-25T09:59:19.018Z,100171.84
2022-08-25T10:04:28.801Z,100172.34
2022-08-25T10:09:34.572Z,100159.38
2022-08-25T10:14:44.676Z,100144.69
2022-08-25T10:19:46.350Z,100140.69
2022-08-25T10:24:51.314Z,100127.53
2022-08-25T10:30:17.989Z,100120.38
2022-08-25T10:35:28.075Z,100115.31
2022-08-25T10:40:47.655Z,100113.16
2022-08-25T10:45:56.631Z,100110.91
2022-08-25T10:51:28.446Z,100097.72
2022-08-25T10:56:36.920Z,100088.03
2022-08-25T11:02:06.579Z,100080.53
2022-08-25T11:07:32.573Z,100074.13
2022-08-25T11:12:45.935Z,100070.78
2022-08-25T11:18:03.735Z,100070.94
2022-08-25T11:23:21.373Z,100067.53
2022-08-25T11:28:28.429Z,100061.66
2022-08-25T11:33:31.183Z,100060.59
2022-08-25T11:38:59.864Z,100051.00
2022-08-25T11:44:30.147Z,100048.91
2022-08-25T11:49:51.265Z,100050.31
2022-08-25T11:54:52.952Z,100034.00
2022-08-25T11:59:57.131Z,100039.47
2022-08-25T12:04:58.953Z,100032.84
2022-08-25T12:10:03.471Z,100026.16
2022-08-25T12:15:26.975Z,100022.44
2022-08-25T12:20:53.562Z,100009.56
2022-08-25T12:25:58.796Z,100001.59
2022-08-25T12:31:09.032Z,99997.88
2022-08-25T12:36:25.930Z,99997.34
2022-08-25T12:41:31.545Z,99992.38
2022-08-25T12:46:39.442Z,100003.53
2022-08-25T12:51:59.999Z,99991.97
2022-08-25T12:57:08.066Z,99989.09
2022-08-25T13:02:52.230Z,99985.03
2022-08-25T13:08:34.023Z,99973.00
2022-08-25T13:14:04.228Z,99970.13
2022-08-25T13:19:07.063Z,99964.38
2022-08-25T13:24:26.932Z,99959.91
2022-08-25T13:29:35.829Z,99953.09
2022-08-25T13:34:43.448Z,99944.72
2022-08-25T13:39:56.334Z,99947.47
2022-08-25T13:44:58.527Z,99938.53
2022-08-25T13:50:20.777Z,99930.84
2022-08-25T13:55:51.236Z,99921.69
2022-08-25T14:01:23.133Z,99919.31
2022-08-25T14:06:29.426Z,99928.00
2022-08-25T14:11:33.311Z,99923.94
2022-08-25T14:17:16.516Z,99917.84
2022-08-25T14:22:28.325Z,99910.63
2022-08-25T14:27:29.939Z,99909.22
2022-08-25T14:32:31.680Z,99906.38
2022-08-25T14:37:34.826Z,99903.84
2022-08-25T14:42:36.399Z,99895.53
2022-08-25T14:47:38.613Z,99890.97
2022-08-25T14:52:42.094Z,99887.63
2022-08-25T14:57:44.363Z,99878.13
2022-08-25T15:02:49.401Z,99872.56
2022-08-25T15:08:12.173Z,99871.72
2022-08-25T15:13:14.719Z,99869.34
2022-08-25T15:18:17.232Z,99872.72
2022-08-25T15:23:19.306Z,99874.59
2022-08-25T15:28:22.467Z,99876.97
2022-08-25T15:33:24.583Z,99879.59
2022-08-25T15:38:26.162Z,99891.50
2022-08-25T15:43:28.045Z,99877.59
2022-08-25T15:48:29.706Z,99870.28
2022-08-25T15:53:31.425Z,99855.91
2022-08-25T15:58:35.335Z,99846.53
2022-08-25T16:03:37.219Z,99861.81
2022-08-25T16:08:39.449Z,99858.84
2022-08-25T16:13:44.268Z,99842.13
2022-08-25T16:18:46.371Z,99841.22
2022-08-25T16:23:48.838Z,99840.66
2022-08-25T16:28:50.771Z,99836.22
2022-08-25T16:33:56.042Z,99838.78
2022-08-25T16:39:01.408Z,99841.72
2022-08-25T16:44:07.754Z,99843.44
2022-08-25T16:49:14.507Z,99847.84
2022-08-25T16:54:35.975Z,99847.38
2022-08-25T16:59:37.696Z,99841.91
2022-08-25T17:04:40.697Z,99836.38
2022-08-25T17:09:42.485Z,99841.47
2022-08-25T17:14:44.069Z,99846.03
2022-08-25T17:19:48.032Z,99855.09
2022-08-25T17:24:59.440Z,99854.56
2022-08-25T17:30:03.071Z,99856.78
2022-08-25T17:35:06.055Z,99861.63
2022-08-25T17:40:09.688Z,99871.16
2022-08-25T17:45:12.736Z,99876.13
2022-08-25T17:50:15.056Z,99877.22
2022-08-25T17:55:23.295Z,99895.28
2022-08-25T18:00:25.348Z,99899.16
2022-08-25T18:05:27.917Z,99900.94
2022-08-25T18:10:29.972Z,99894.19
2022-08-25T18:15:33.915Z,99893.75
2022-08-25T18:20:35.583Z,99892.22
2022-08-25T18:25:37.389Z,99899.72
2022-08-25T18:30:43.820Z,99903.28
2022-08-25T18:35:46.430Z,99911.34
2022-08-25T18:40:56.206Z,99920.84
2022-08-25T18:46:03.601Z,99912.75
2022-08-25T18:51:07.480Z,99912.06
2022-08-25T18:56:12.088Z,99909.06
2022-08-25T19:01:18.194Z,99913.00
2022-08-25T19:06:20.645Z,99917.94
2022-08-25T19:11:23.206Z,99909.88
2022-08-25T19:16:41.214Z,99910.81
2022-08-25T19:21:45.484Z,99913.25
2022-08-25T19:26:54.478Z,99914.47
2022-08-25T19:31:57.341Z,99915.13
2022-08-25T19:37:04.645Z,99920.53
2022-08-25T19:42:07.451Z,99924.59
2022-08-25T19:47:09.337Z,99917.09
2022-08-25T19:52:17.170Z,99912.41
2022-08-25T19:57:28.266Z,99907.06
2022-08-25T20:02:44.296Z,99910.41
2022-08-25T20:07:45.949Z,99909.94
2022-08-25T20:12:47.865Z,99913.19
2022-08-25T20:17:49.672Z,99913.97
2022-08-25T20:22:51.574Z,99899.00
2022-08-25T20:27:56.462Z,99905.47
2022-08-25T20:32:58.294Z,99907.03
2022-08-25T20:38:00.965Z,99902.19
2022-08-25T20:43:04.356Z,99906.69
2022-08-25T20:48:06.154Z,99912.06
2022-08-25T20:53:10.189Z,99910.00
2022-08-25T20:58:16.074Z,99902.84
2022-08-25T21:03:17.769Z,99904.19
2022-08-25T21:08:21.702Z,99898.59
2022-08-25T21:13:25.749Z,99904.13
2022-08-25T21:18:31.531Z,99901.38
2022-08-25T21:23:34.468Z,99896.16
2022-08-25T21:28:36.187Z,99906.53
2022-08-25T21:33:38.867Z,99897.94
2022-08-25T21:38:40.853Z,99891.69
2022-08-25T21:43:45.506Z,99887.69
2022-08-25T21:48:50.166Z,99894.91
2022-08-25T21:54:08.811Z,99897.59
2022-08-25T21:59:14.192Z,99892.97
2022-08-25T22:04:15.915Z,99888.09
2022-08-25T22:09:18.035Z,99882.16
2022-08-25T22:14:20.615Z,99873.78
2022-08-25T22:19:23.122Z,99880.56
2022-08-25T22:24:28.467Z,99878.25
2022-08-25T22:29:30.972Z,99876.59
2022-08-25T22:34:34.455Z,99868.91
2022-08-25T22:39:36.194Z,99862.19
2022-08-25T22:44:42.575Z,99858.69
2022-08-25T22:49:44.528Z,99850.78
2022-08-25T22:54:46.980Z,99845.66
2022-08-25T22:59:48.598Z,99842.84
2022-08-25T23:04:51.255Z,99836.53
2022-08-25T23:10:03.061Z,99833.63
2022-08-25T23:15:08.783Z,99838.69
2022-08-25T23:20:29.182Z,99826.81
2022-08-25T23:25:32.758Z,99825.59
2022-08-25T23:30:35.139Z,99824.00
2022-08-25T23:35:44.406Z,99817.06
2022-08-25T23:40:46.605Z,99816.44
2022-08-25T23:45:49.512Z,99814.25
2022-08-25T23:50:54.121Z,99811.63
2022-08-25T23:55:57.396Z,99812.69
